createdAt,value
2023-03-13T00:00:41.205Z,6.10
2023-03-13T00:01:53.345Z,6.70
2023-03-13T00:03:15.216Z,6.78
2023-03-13T00:04:23.350Z,6.60
2023-03-13T00:05:52.238Z,6.32
2023-03-13T00:07:14.237Z,5.80
2023-03-13T00:08:22.329Z,5.35
2023-03-13T00:09:37.958Z,5.73
2023-03-13T00:10:52.274Z,4.50
2023-03-13T00:12:00.362Z,4.30
2023-03-13T00:13:22.309Z,4.00
2023-03-13T00:14:30.424Z,3.70
2023-03-13T00:15:45.881Z,3.20
2023-03-13T00:17:00.359Z,3.50
2023-03-13T00:18:08.384Z,5.18
2023-03-13T00:19:30.283Z,7.22
2023-03-13T00:20:38.432Z,6.53
2023-03-13T00:21:53.925Z,6.43
2023-03-13T00:23:08.325Z,6.57
2023-03-13T00:24:25.254Z,7.07
2023-03-13T00:25:54.288Z,8.60
2023-03-13T00:27:23.288Z,8.60
2023-03-13T00:28:53.282Z,8.25
2023-03-13T00:30:16.358Z,7.80
2023-03-13T00:31:27.555Z,7.28
2023-03-13T00:32:51.350Z,8.05
2023-03-13T00:34:02.403Z,8.02
2023-03-13T00:35:25.414Z,7.40
2023-03-13T00:36:37.457Z,8.00
2023-03-13T00:37:59.290Z,7.55
2023-03-13T00:39:09.502Z,7.00
2023-03-13T00:40:31.325Z,7.13
2023-03-13T00:41:40.462Z,5.88
2023-03-13T00:43:02.325Z,5.80
2023-03-13T00:44:10.415Z,5.70
2023-03-13T00:45:33.329Z,5.30
2023-03-13T00:46:42.452Z,5.00
2023-03-13T00:48:04.355Z,5.20
2023-03-13T00:49:13.431Z,5.37
2023-03-13T00:50:35.329Z,5.65
2023-03-13T00:51:44.495Z,5.13
2023-03-13T00:53:06.367Z,5.50
2023-03-13T00:54:16.489Z,5.20
2023-03-13T00:55:38.370Z,6.35
2023-03-13T00:57:00.379Z,6.82
2023-03-13T00:58:09.063Z,7.40
2023-03-13T00:59:30.322Z,7.07
2023-03-13T01:00:40.032Z,5.93
2023-03-13T01:01:54.704Z,6.17
2023-03-13T01:03:09.564Z,5.78
2023-03-13T01:04:18.109Z,6.00
2023-03-13T01:05:39.374Z,5.88
2023-03-13T01:06:54.953Z,5.55
2023-03-13T01:08:16.418Z,6.60
2023-03-13T01:09:25.065Z,5.70
2023-03-13T01:10:46.410Z,5.60
2023-03-13T01:11:55.036Z,5.32
2023-03-13T01:13:16.415Z,4.97
2023-03-13T01:14:25.053Z,6.50
2023-03-13T01:15:42.657Z,5.72
2023-03-13T01:16:57.405Z,6.60
2023-03-13T01:18:26.397Z,6.60
2023-03-13T01:19:48.381Z,4.70
2023-03-13T01:21:03.548Z,4.60
2023-03-13T01:22:12.691Z,4.22
2023-03-13T01:23:27.432Z,4.60
2023-03-13T01:24:49.415Z,4.15
2023-03-13T01:26:05.440Z,4.37
2023-03-13T01:27:20.542Z,5.23
2023-03-13T01:28:43.419Z,5.00
2023-03-13T01:29:51.598Z,4.55
2023-03-13T01:31:25.515Z,4.20
2023-03-13T01:32:33.564Z,4.65
2023-03-13T01:33:58.507Z,4.30
2023-03-13T01:35:15.310Z,4.70
2023-03-13T01:36:31.509Z,4.80
2023-03-13T01:37:46.559Z,4.60
2023-03-13T01:38:57.703Z,4.20
2023-03-13T01:40:13.504Z,5.05
2023-03-13T01:41:29.685Z,4.40
2023-03-13T01:42:55.732Z,4.40
2023-03-13T01:44:11.478Z,4.70
2023-03-13T01:46:05.552Z,5.10
2023-03-13T01:47:48.148Z,5.30
2023-03-13T01:49:22.449Z,5.70
2023-03-13T01:50:55.526Z,5.75
2023-03-13T01:52:37.515Z,5.70
2023-03-13T01:54:16.525Z,6.10
2023-03-13T01:55:33.768Z,6.10
2023-03-13T01:57:02.495Z,6.57
2023-03-13T01:58:17.475Z,6.70
2023-03-13T01:59:40.623Z,6.60
2023-03-13T02:00:56.666Z,7.13
2023-03-13T02:02:13.568Z,6.93
2023-03-13T02:03:25.625Z,7.00
2023-03-13T02:04:54.579Z,7.50
2023-03-13T02:06:05.163Z,7.30
2023-03-13T02:07:34.505Z,7.20
2023-03-13T02:08:49.686Z,7.00
2023-03-13T02:10:12.518Z,6.88
2023-03-13T02:11:46.626Z,7.20
2023-03-13T02:13:09.572Z,5.90
2023-03-13T02:14:22.279Z,5.45
2023-03-13T02:15:44.644Z,5.90
2023-03-13T02:16:53.721Z,5.85
2023-03-13T02:18:15.591Z,5.63
2023-03-13T02:20:02.547Z,5.82
2023-03-13T02:21:46.538Z,5.03
2023-03-13T02:23:17.122Z,6.32
2023-03-13T02:24:41.940Z,6.65
2023-03-13T02:25:59.587Z,6.65
2023-03-13T02:27:14.676Z,6.15
2023-03-13T02:28:33.717Z,5.43
2023-03-13T02:29:53.715Z,4.72
2023-03-13T02:31:08.750Z,4.80
2023-03-13T02:32:31.630Z,4.85
2023-03-13T02:33:45.723Z,6.32
2023-03-13T02:35:16.705Z,5.70
2023-03-13T02:36:40.585Z,5.90
2023-03-13T02:37:54.612Z,5.45
2023-03-13T02:39:20.631Z,6.25
2023-03-13T02:40:39.628Z,6.15
2023-03-13T02:41:55.691Z,5.90
2023-03-13T02:43:12.462Z,5.85
2023-03-13T02:44:27.632Z,5.93
2023-03-13T02:45:42.706Z,6.07
2023-03-13T02:46:58.344Z,5.95
2023-03-13T02:48:19.668Z,5.57
2023-03-13T02:49:30.156Z,5.60
2023-03-13T02:50:51.634Z,5.80
2023-03-13T02:52:09.186Z,5.80
2023-03-13T02:53:31.671Z,5.53
2023-03-13T02:54:41.335Z,5.40
2023-03-13T02:56:02.671Z,6.15
2023-03-13T02:57:11.607Z,5.38
2023-03-13T02:58:35.668Z,5.30
2023-03-13T02:59:47.408Z,4.70
2023-03-13T03:01:13.773Z,4.40
2023-03-13T03:02:23.271Z,4.50
2023-03-13T03:03:44.693Z,4.30
2023-03-13T03:04:53.347Z,4.63
2023-03-13T03:06:14.679Z,4.47
2023-03-13T03:07:36.673Z,4.95
2023-03-13T03:08:45.855Z,5.35
2023-03-13T03:10:07.636Z,5.38
2023-03-13T03:11:17.797Z,5.70
2023-03-13T03:12:45.712Z,5.60
2023-03-13T03:14:01.697Z,5.43
2023-03-13T03:15:33.665Z,5.45
2023-03-13T03:17:02.682Z,4.80
2023-03-13T03:18:34.244Z,5.30
2023-03-13T03:19:50.339Z,5.00
2023-03-13T03:21:12.736Z,5.28
2023-03-13T03:22:21.277Z,5.20
2023-03-13T03:23:42.756Z,6.15
2023-03-13T03:24:51.329Z,5.40
2023-03-13T03:26:14.690Z,5.38
2023-03-13T03:27:29.735Z,5.00
2023-03-13T03:28:54.726Z,4.03
2023-03-13T03:30:24.691Z,3.97
2023-03-13T03:31:53.826Z,5.45
2023-03-13T03:33:22.748Z,4.70
2023-03-13T03:34:38.395Z,4.93
2023-03-13T03:35:59.758Z,4.72
2023-03-13T03:37:08.323Z,5.28
2023-03-13T03:38:30.807Z,4.88
2023-03-13T03:39:45.719Z,4.68
2023-03-13T03:41:08.802Z,4.87
2023-03-13T03:42:17.332Z,4.60
2023-03-13T03:43:38.756Z,4.93
2023-03-13T03:44:48.311Z,5.53
2023-03-13T03:46:09.788Z,4.68
2023-03-13T03:47:18.467Z,4.60
2023-03-13T03:48:32.872Z,4.55
2023-03-13T03:49:49.760Z,4.75
2023-03-13T03:51:04.870Z,4.55
2023-03-13T03:52:22.840Z,5.43
2023-03-13T03:53:37.890Z,5.33
2023-03-13T03:54:52.758Z,5.22
2023-03-13T03:56:07.879Z,5.57
2023-03-13T03:57:27.788Z,5.40
2023-03-13T03:58:42.937Z,4.88
2023-03-13T04:00:23.007Z,4.78
2023-03-13T04:01:53.832Z,4.95
2023-03-13T04:03:24.879Z,5.95
2023-03-13T04:04:53.818Z,5.43
2023-03-13T04:06:27.774Z,5.40
2023-03-13T04:07:58.852Z,5.00
2023-03-13T04:09:29.830Z,5.75
2023-03-13T04:10:48.560Z,5.40
2023-03-13T04:12:11.843Z,5.43
2023-03-13T04:13:24.395Z,6.20
2023-03-13T04:14:40.903Z,6.20
2023-03-13T04:15:56.792Z,5.80
2023-03-13T04:17:05.635Z,5.30
2023-03-13T04:18:21.942Z,5.60
2023-03-13T04:19:36.828Z,5.85
2023-03-13T04:21:07.990Z,5.33
2023-03-13T04:22:30.803Z,5.40
2023-03-13T04:23:46.504Z,5.28
2023-03-13T04:25:08.858Z,5.28
2023-03-13T04:26:37.837Z,5.75
2023-03-13T04:28:06.887Z,5.20
2023-03-13T04:29:38.928Z,5.15
2023-03-13T04:31:23.868Z,4.97
2023-03-13T04:32:59.030Z,5.30
2023-03-13T04:34:37.931Z,5.22
2023-03-13T04:35:59.986Z,5.20
2023-03-13T04:37:44.878Z,5.55
2023-03-13T04:39:25.300Z,4.95
2023-03-13T04:41:04.866Z,5.45
2023-03-13T04:42:46.974Z,5.22
2023-03-13T04:44:20.977Z,4.95
2023-03-13T04:45:54.653Z,5.60
2023-03-13T04:47:45.909Z,5.15
2023-03-13T04:49:19.923Z,5.15
2023-03-13T04:50:55.945Z,5.35
2023-03-13T04:52:30.055Z,5.23
2023-03-13T04:53:51.540Z,5.40
2023-03-13T04:55:16.914Z,4.90
2023-03-13T04:56:42.684Z,5.13
2023-03-13T04:58:10.569Z,5.03
2023-03-13T04:59:29.959Z,4.75
2023-03-13T05:01:15.089Z,4.65
2023-03-13T05:02:50.587Z,4.40
2023-03-13T05:04:27.986Z,5.20
2023-03-13T05:06:14.963Z,5.00
2023-03-13T05:08:02.985Z,4.53
2023-03-13T05:09:32.114Z,4.30
2023-03-13T05:10:48.932Z,4.70
2023-03-13T05:12:14.079Z,5.22
2023-03-13T05:13:48.999Z,4.97
2023-03-13T05:15:23.120Z,4.90
2023-03-13T05:16:53.687Z,5.00
2023-03-13T05:18:26.940Z,5.00
2023-03-13T05:20:01.125Z,4.80
2023-03-13T05:21:35.669Z,5.03
2023-03-13T05:23:29.034Z,5.20
2023-03-13T05:25:05.108Z,4.90
2023-03-13T05:27:04.967Z,5.00
2023-03-13T05:28:35.150Z,5.22
2023-03-13T05:29:59.664Z,5.25
2023-03-13T05:31:24.051Z,5.35
2023-03-13T05:33:12.010Z,5.18
2023-03-13T05:34:58.000Z,5.05
2023-03-13T05:36:31.642Z,4.60
2023-03-13T05:38:21.040Z,4.80
2023-03-13T05:40:01.666Z,4.73
2023-03-13T05:41:35.114Z,5.22
2023-03-13T05:42:56.058Z,4.82
2023-03-13T05:44:21.252Z,5.20
2023-03-13T05:46:15.162Z,5.20
2023-03-13T05:47:41.818Z,4.75
2023-03-13T05:54:58.326Z,4.55
2023-03-13T05:56:25.762Z,4.47
2023-03-13T05:58:06.008Z,4.47
2023-03-13T05:59:53.197Z,4.40
2023-03-13T06:01:32.808Z,3.80
2023-03-13T06:02:54.163Z,4.30
2023-03-13T06:05:46.114Z,4.00
2023-03-13T06:07:26.267Z,4.28
2023-03-13T06:08:55.204Z,4.00
2023-03-13T06:10:19.150Z,4.35
2023-03-13T06:11:34.287Z,4.20
2023-03-13T06:13:07.575Z,4.22
2023-03-13T06:14:22.285Z,4.45
2023-03-13T06:16:14.235Z,4.53
2023-03-13T06:17:26.319Z,4.68
2023-03-13T06:18:48.072Z,4.60
2023-03-13T06:19:56.272Z,4.72
2023-03-13T06:21:11.819Z,5.85
2023-03-13T06:22:26.128Z,4.85
2023-03-13T06:23:35.306Z,5.05
2023-03-13T06:24:45.167Z,4.93
2023-03-13T06:26:01.130Z,4.45
2023-03-13T06:27:16.309Z,4.80
2023-03-13T06:28:38.169Z,4.93
2023-03-13T06:29:46.262Z,5.32
2023-03-13T06:31:10.234Z,5.72
2023-03-13T06:32:19.285Z,7.40
2023-03-13T06:33:41.176Z,6.82
2023-03-13T06:34:49.235Z,6.70
2023-03-13T06:36:12.151Z,6.72
2023-03-13T06:37:20.249Z,5.50
2023-03-13T06:38:42.192Z,4.72
2023-03-13T06:39:50.261Z,5.47
2023-03-13T06:41:05.925Z,5.05
2023-03-13T06:42:20.159Z,5.60
2023-03-13T06:43:29.330Z,6.15
2023-03-13T06:44:37.892Z,6.03
2023-03-13T06:45:53.155Z,7.38
2023-03-13T06:47:01.394Z,6.43
2023-03-13T06:48:24.163Z,7.30
2023-03-13T06:49:39.183Z,6.73
2023-03-13T06:51:08.187Z,7.00
2023-03-13T06:52:43.510Z,7.18
2023-03-13T06:54:01.378Z,7.53
2023-03-13T06:55:24.199Z,7.00
2023-03-13T06:56:32.848Z,7.20
2023-03-13T06:57:55.175Z,6.68
2023-03-13T06:59:03.905Z,6.47
2023-03-13T07:00:26.208Z,5.78
2023-03-13T07:01:34.908Z,5.93
2023-03-13T07:02:56.200Z,6.00
2023-03-13T07:04:04.943Z,6.03
2023-03-13T07:05:27.219Z,5.97
2023-03-13T07:06:49.242Z,5.85
2023-03-13T07:08:18.250Z,6.32
2023-03-13T07:09:33.961Z,5.72
2023-03-13T07:10:52.454Z,6.00
2023-03-13T07:12:10.218Z,5.28
2023-03-13T07:13:33.280Z,5.38
2023-03-13T07:14:48.353Z,4.88
2023-03-13T07:16:16.270Z,5.00
2023-03-13T07:17:24.393Z,4.70
2023-03-13T07:18:51.276Z,4.85
2023-03-13T07:19:59.454Z,4.72
2023-03-13T07:21:21.271Z,4.47
2023-03-13T07:22:29.426Z,4.57
2023-03-13T07:23:51.289Z,4.50
2023-03-13T07:24:59.378Z,4.93
2023-03-13T07:26:23.377Z,4.72
2023-03-13T07:27:39.405Z,4.68
2023-03-13T07:28:54.327Z,4.70
2023-03-13T07:30:09.406Z,4.23
2023-03-13T07:31:26.476Z,5.13
2023-03-13T07:32:41.500Z,4.30
2023-03-13T07:33:59.279Z,4.20
2023-03-13T07:35:14.780Z,4.45
2023-03-13T07:36:29.445Z,4.43
2023-03-13T07:37:44.416Z,4.63
2023-03-13T07:39:00.298Z,4.70
2023-03-13T07:40:16.430Z,4.70
2023-03-13T07:41:24.968Z,4.45
2023-03-13T07:42:39.259Z,4.80
2023-03-13T07:43:54.387Z,4.55
2023-03-13T07:45:09.289Z,4.93
2023-03-13T07:46:26.530Z,4.80
2023-03-13T07:47:35.922Z,4.65
2023-03-13T07:48:51.389Z,4.35
2023-03-13T07:50:06.771Z,4.60
2023-03-13T07:51:43.838Z,4.43
2023-03-13T07:52:59.995Z,4.18
2023-03-13T07:54:21.364Z,4.18
2023-03-13T07:55:29.947Z,4.40
2023-03-13T07:56:44.428Z,4.38
2023-03-13T07:57:59.369Z,4.70
2023-03-13T07:59:28.347Z,4.38
2023-03-13T08:00:57.381Z,4.38
2023-03-13T08:02:26.483Z,4.13
2023-03-13T08:03:42.285Z,4.10
2023-03-13T08:05:08.406Z,4.43
2023-03-13T08:06:34.250Z,4.28
2023-03-13T08:07:56.370Z,4.40
2023-03-13T08:09:06.702Z,4.50
2023-03-13T08:10:28.441Z,4.75
2023-03-13T08:11:36.600Z,4.65
2023-03-13T08:12:58.450Z,4.47
2023-03-13T08:14:06.927Z,4.20
2023-03-13T08:15:32.450Z,4.30
2023-03-13T08:16:41.595Z,4.25
2023-03-13T08:17:57.756Z,4.07
2023-03-13T08:19:13.483Z,4.95
2023-03-13T08:20:21.520Z,4.70
2023-03-13T08:21:45.481Z,4.67
2023-03-13T08:22:53.527Z,4.70
2023-03-13T08:24:17.380Z,4.40
2023-03-13T08:25:25.519Z,4.50
2023-03-13T08:26:49.415Z,4.43
2023-03-13T08:27:57.547Z,5.22
2023-03-13T08:29:15.050Z,4.45
2023-03-13T08:30:29.494Z,5.07
2023-03-13T08:31:48.460Z,4.22
2023-03-13T08:33:17.419Z,3.88
2023-03-13T08:34:35.200Z,3.50
2023-03-13T08:35:56.460Z,3.80
2023-03-13T08:37:05.106Z,3.90
2023-03-13T08:38:26.436Z,4.30
2023-03-13T08:39:35.137Z,5.53
2023-03-13T08:40:56.471Z,4.68
2023-03-13T08:42:05.176Z,4.75
2023-03-13T08:43:26.503Z,4.50
2023-03-13T08:44:35.082Z,11.25
2023-03-13T08:45:56.493Z,4.60
2023-03-13T08:47:06.932Z,4.63
2023-03-13T08:48:28.462Z,4.30
2023-03-13T08:49:37.298Z,4.32
2023-03-13T08:50:52.591Z,4.45
2023-03-13T08:52:07.564Z,4.57
2023-03-13T08:53:36.467Z,4.50
2023-03-13T08:54:52.122Z,4.00
2023-03-13T08:56:13.574Z,4.43
2023-03-13T08:57:22.647Z,4.57
2023-03-13T08:58:38.754Z,4.07
2023-03-13T08:59:53.534Z,4.40
2023-03-13T09:01:10.645Z,4.28
2023-03-13T09:02:26.610Z,4.43
2023-03-13T09:03:56.802Z,5.05
2023-03-13T09:05:25.505Z,4.43
2023-03-13T09:06:54.504Z,4.03
2023-03-13T09:08:16.546Z,4.35
2023-03-13T09:09:24.742Z,5.30
2023-03-13T09:10:46.532Z,4.25
2023-03-13T09:11:54.755Z,4.38
2023-03-13T09:13:16.532Z,4.33
2023-03-13T09:14:24.656Z,4.22
2023-03-13T09:15:46.627Z,4.45
2023-03-13T09:16:54.733Z,4.15
2023-03-13T09:18:10.710Z,4.68
2023-03-13T09:19:25.582Z,4.20
2023-03-13T09:20:40.680Z,4.30
2023-03-13T09:21:55.525Z,4.78
2023-03-13T09:23:10.695Z,4.53
2023-03-13T09:24:20.227Z,4.05
2023-03-13T09:25:34.575Z,4.53
2023-03-13T09:27:00.599Z,4.45
2023-03-13T09:28:30.594Z,4.13
2023-03-13T09:29:59.562Z,4.10
2023-03-13T09:31:30.829Z,4.00
2023-03-13T09:32:45.683Z,4.43
2023-03-13T09:33:54.451Z,4.00
2023-03-13T09:35:16.622Z,3.97
2023-03-13T09:36:26.014Z,4.20
2023-03-13T09:37:40.715Z,4.25
2023-03-13T09:39:05.611Z,4.10
2023-03-13T09:40:23.720Z,9.75
2023-03-13T09:42:10.649Z,4.55
2023-03-13T09:43:46.659Z,4.07
2023-03-13T09:45:14.733Z,3.90
2023-03-13T09:46:49.764Z,4.07
2023-03-13T09:48:20.811Z,3.88
2023-03-13T09:49:41.642Z,3.60
2023-03-13T09:51:28.639Z,3.60
2023-03-13T09:52:50.627Z,3.85
2023-03-13T09:54:23.741Z,4.40
2023-03-13T09:55:41.836Z,3.78
2023-03-13T09:57:03.674Z,4.05
2023-03-13T09:58:41.695Z,4.10
2023-03-13T10:00:29.522Z,4.07
2023-03-13T10:01:53.717Z,5.10
2023-03-13T10:03:02.291Z,3.90
2023-03-13T10:04:41.992Z,3.90
2023-03-13T10:06:14.715Z,3.92
2023-03-13T10:07:43.678Z,3.70
2023-03-13T10:09:12.709Z,3.90
2023-03-13T10:10:56.761Z,3.70
2023-03-13T10:12:40.714Z,4.07
2023-03-13T10:14:11.718Z,3.60
2023-03-13T10:15:33.719Z,3.80
2023-03-13T10:16:54.459Z,3.65
2023-03-13T10:18:28.780Z,3.80
2023-03-13T10:19:42.285Z,4.00
2023-03-13T10:21:06.739Z,4.18
2023-03-13T10:22:19.301Z,3.97
2023-03-13T10:23:40.709Z,8.03
2023-03-13T10:24:55.922Z,3.70
2023-03-13T10:26:17.737Z,3.33
2023-03-13T10:27:26.686Z,3.75
2023-03-13T10:28:48.812Z,3.63
2023-03-13T10:29:57.403Z,3.70
2023-03-13T10:31:38.847Z,3.70
2023-03-13T10:32:47.348Z,3.60
2023-03-13T10:34:18.766Z,4.00
2023-03-13T10:35:37.535Z,3.90
2023-03-13T10:37:02.819Z,4.20
2023-03-13T10:38:23.471Z,3.80
2023-03-13T10:39:39.868Z,3.95
2023-03-13T10:41:12.787Z,4.03
2023-03-13T10:42:28.582Z,3.88
2023-03-13T10:44:04.792Z,3.65
2023-03-13T10:45:19.848Z,3.80
2023-03-13T10:46:47.803Z,3.90
2023-03-13T10:48:00.227Z,3.90
2023-03-13T10:49:28.990Z,3.92
2023-03-13T10:50:47.765Z,3.60
2023-03-13T10:52:09.148Z,3.13
2023-03-13T10:53:37.828Z,3.50
2023-03-13T10:54:46.434Z,3.75
2023-03-13T10:56:18.941Z,3.50
2023-03-13T10:57:42.844Z,3.25
2023-03-13T10:58:59.977Z,3.30
2023-03-13T11:00:45.840Z,3.28
2023-03-13T11:02:15.827Z,3.30
2023-03-13T11:03:45.845Z,3.63
2023-03-13T11:05:20.826Z,3.30
2023-03-13T11:06:49.875Z,3.10
2023-03-13T11:08:22.896Z,3.50
2023-03-13T11:09:45.823Z,3.53
2023-03-13T11:11:08.862Z,3.70
2023-03-13T11:12:27.967Z,3.05
2023-03-13T11:13:49.878Z,3.17
2023-03-13T11:15:07.035Z,3.00
2023-03-13T11:16:35.943Z,3.20
2023-03-13T11:18:02.994Z,3.08
2023-03-13T11:19:20.949Z,3.40
2023-03-13T11:20:42.012Z,3.10
2023-03-13T11:21:56.906Z,3.03
2023-03-13T11:23:46.950Z,3.25
2023-03-13T11:25:29.506Z,3.40
2023-03-13T11:27:04.306Z,3.30
2023-03-13T11:28:20.185Z,3.38
2023-03-13T11:30:03.934Z,3.30
2023-03-13T11:31:26.114Z,3.45
2023-03-13T11:33:02.993Z,3.53
2023-03-13T11:34:29.772Z,3.90
2023-03-13T11:36:19.962Z,3.60
2023-03-13T11:37:40.108Z,3.42
2023-03-13T11:39:22.010Z,3.72
2023-03-13T11:41:06.138Z,3.72
2023-03-13T11:42:48.407Z,3.60
2023-03-13T11:44:05.952Z,3.60
2023-03-13T11:45:44.006Z,3.58
2023-03-13T11:47:26.981Z,3.50
2023-03-13T11:49:04.977Z,3.60
2023-03-13T11:51:02.098Z,4.03
2023-03-13T11:52:54.055Z,4.05
2023-03-13T11:54:47.854Z,4.00
2023-03-13T11:56:23.966Z,4.18
2023-03-13T11:57:55.971Z,4.07
2023-03-13T11:59:34.016Z,3.90
2023-03-13T12:01:19.061Z,3.83
2023-03-13T12:02:57.958Z,4.10
2023-03-13T12:04:16.311Z,3.78
2023-03-13T12:05:33.167Z,4.18
2023-03-13T12:07:11.022Z,5.10
2023-03-13T12:09:00.106Z,5.20
2023-03-13T12:10:51.983Z,4.90
2023-03-13T12:12:24.018Z,4.50
2023-03-13T12:13:48.951Z,4.20
2023-03-13T12:15:40.052Z,4.28
2023-03-13T12:17:00.906Z,4.75
2023-03-13T12:18:45.224Z,4.97
2023-03-13T12:20:16.016Z,4.70
2023-03-13T12:21:56.105Z,4.68
2023-03-13T12:23:35.060Z,4.60
2023-03-13T12:25:07.196Z,4.30
2023-03-13T12:26:34.317Z,4.18
2023-03-13T12:27:56.170Z,4.40
2023-03-13T12:29:30.176Z,4.13
2023-03-13T12:30:54.154Z,4.22
2023-03-13T12:32:41.303Z,4.28
2023-03-13T12:34:24.087Z,4.13
2023-03-13T12:35:36.181Z,4.35
2023-03-13T12:37:01.097Z,4.10
2023-03-13T12:38:33.167Z,3.73
2023-03-13T12:39:58.108Z,3.83
2023-03-13T12:41:27.457Z,4.10
2023-03-13T12:43:12.082Z,4.00
2023-03-13T12:44:26.272Z,3.92
2023-03-13T12:46:18.169Z,3.80
2023-03-13T12:47:40.236Z,3.80
2023-03-13T12:49:29.136Z,3.92
2023-03-13T12:50:55.232Z,4.00
2023-03-13T12:52:23.307Z,3.70
2023-03-13T12:53:40.458Z,3.90
2023-03-13T12:55:34.155Z,4.07
2023-03-13T12:57:01.302Z,4.07
2023-03-13T12:58:51.943Z,3.60
2023-03-13T13:00:12.163Z,3.85
2023-03-13T13:01:38.293Z,4.10
2023-03-13T13:03:36.194Z,4.68
2023-03-13T13:04:53.464Z,4.07
2023-03-13T13:06:19.178Z,4.40
2023-03-13T13:07:43.294Z,4.47
2023-03-13T13:09:22.224Z,4.20
2023-03-13T13:10:41.361Z,4.20
2023-03-13T13:12:23.213Z,4.22
2023-03-13T13:13:38.313Z,4.03
2023-03-13T13:14:58.984Z,4.40
2023-03-13T13:16:24.222Z,4.20
2023-03-13T13:17:57.259Z,3.88
2023-03-13T13:19:48.196Z,3.80
2023-03-13T13:21:09.301Z,3.90
2023-03-13T13:22:38.813Z,3.80
2023-03-13T13:24:00.266Z,3.70
2023-03-13T13:25:18.367Z,3.65
2023-03-13T13:26:54.239Z,3.80
2023-03-13T13:28:03.355Z,3.97
2023-03-13T13:29:25.234Z,3.90
2023-03-13T13:30:38.575Z,3.58
2023-03-13T13:32:08.386Z,3.60
2023-03-13T13:33:30.995Z,4.18
2023-03-13T13:35:03.283Z,4.10
2023-03-13T13:36:27.333Z,4.20
2023-03-13T13:37:50.336Z,4.00
2023-03-13T13:38:59.489Z,3.90
2023-03-13T13:40:30.320Z,4.20
2023-03-13T13:41:43.439Z,3.90
2023-03-13T13:43:31.291Z,3.80
2023-03-13T13:44:40.387Z,3.47
2023-03-13T13:46:08.350Z,3.83
2023-03-13T13:47:33.445Z,3.58
2023-03-13T13:49:14.281Z,4.00
2023-03-13T13:50:35.419Z,3.30
2023-03-13T13:52:06.838Z,3.63
2023-03-13T13:53:57.310Z,3.50
2023-03-13T13:55:39.378Z,3.97
2023-03-13T13:56:54.909Z,4.10
2023-03-13T13:58:24.286Z,4.20
2023-03-13T13:59:41.497Z,3.92
2023-03-13T14:01:17.343Z,4.00
2023-03-13T14:02:40.377Z,3.75
2023-03-13T14:04:00.746Z,3.72
2023-03-13T14:05:17.744Z,3.70
2023-03-13T14:06:41.293Z,3.33
2023-03-13T14:08:29.315Z,3.25
2023-03-13T14:10:07.365Z,3.80
2023-03-13T14:11:26.077Z,3.53
2023-03-13T14:12:50.370Z,3.75
2023-03-13T14:14:10.920Z,3.80
2023-03-13T14:15:41.439Z,3.60
2023-03-13T14:16:57.752Z,3.55
2023-03-13T14:18:35.369Z,3.58
2023-03-13T14:19:44.140Z,4.10
2023-03-13T14:21:20.349Z,3.50
2023-03-13T14:22:47.043Z,3.88
2023-03-13T14:24:08.400Z,4.10
2023-03-13T14:25:17.300Z,3.60
2023-03-13T14:26:42.358Z,3.60
2023-03-13T14:27:52.541Z,3.75
2023-03-13T14:29:16.439Z,4.10
2023-03-13T14:30:25.188Z,4.30
2023-03-13T14:31:41.575Z,3.70
2023-03-13T14:32:58.468Z,3.45
2023-03-13T14:34:11.513Z,3.53
2023-03-13T14:35:27.513Z,4.05
2023-03-13T14:37:16.825Z,4.13
2023-03-13T14:38:40.520Z,3.92
2023-03-13T14:39:53.550Z,4.05
2023-03-13T14:41:37.473Z,4.25
2023-03-13T14:42:54.587Z,4.72
2023-03-13T14:44:35.429Z,3.60
2023-03-13T14:45:44.685Z,3.80
2023-03-13T14:47:05.045Z,4.57
2023-03-13T14:48:30.459Z,4.23
2023-03-13T14:49:46.525Z,4.10
2023-03-13T14:51:26.628Z,4.03
2023-03-13T14:52:48.475Z,3.38
2023-03-13T14:54:02.155Z,3.95
2023-03-13T14:55:42.512Z,4.65
2023-03-13T14:57:04.083Z,3.45
2023-03-13T14:58:42.501Z,3.63
2023-03-13T15:00:45.496Z,3.47
2023-03-13T15:02:22.086Z,3.50
2023-03-13T15:03:46.522Z,3.73
2023-03-13T15:05:01.294Z,3.50
2023-03-13T15:06:23.537Z,4.10
2023-03-13T15:07:55.517Z,4.47
2023-03-13T15:09:28.539Z,3.40
2023-03-13T15:10:45.091Z,3.20
2023-03-13T15:12:14.507Z,3.80
2023-03-13T15:13:42.620Z,3.83
2023-03-13T15:14:59.706Z,3.40
2023-03-13T15:16:25.572Z,3.40
2023-03-13T15:17:40.742Z,3.53
2023-03-13T15:18:56.542Z,4.60
2023-03-13T15:20:12.661Z,4.30
2023-03-13T15:21:39.592Z,3.90
2023-03-13T15:22:54.795Z,3.80
2023-03-13T15:24:21.558Z,4.05
2023-03-13T15:25:30.634Z,3.80
2023-03-13T15:26:52.617Z,4.57
2023-03-13T15:28:00.636Z,4.20
2023-03-13T15:29:18.312Z,4.10
2023-03-13T15:30:32.570Z,4.10
2023-03-13T15:31:47.639Z,4.05
2023-03-13T15:33:16.601Z,3.90
2023-03-13T15:34:45.575Z,4.35
2023-03-13T15:36:14.732Z,4.38
2023-03-13T15:37:37.611Z,4.20
2023-03-13T15:38:52.705Z,4.40
2023-03-13T15:40:14.906Z,4.50
2023-03-13T15:41:30.677Z,4.55
2023-03-13T15:42:45.665Z,4.72
2023-03-13T15:44:01.592Z,4.30
2023-03-13T15:45:17.702Z,4.25
2023-03-13T15:46:27.642Z,3.72
2023-03-13T15:47:42.650Z,5.18
2023-03-13T15:48:51.730Z,4.28
2023-03-13T15:50:12.805Z,3.80
2023-03-13T15:51:27.604Z,4.53
2023-03-13T15:52:36.749Z,4.13
2023-03-13T15:53:59.668Z,4.65
2023-03-13T15:55:08.436Z,3.78
2023-03-13T15:56:34.895Z,3.73
2023-03-13T15:57:55.624Z,4.72
2023-03-13T15:59:04.700Z,4.43
2023-03-13T16:00:33.692Z,4.40
2023-03-13T16:01:42.029Z,4.45
2023-03-13T16:03:03.642Z,3.72
2023-03-13T16:04:12.760Z,4.55
2023-03-13T16:05:35.634Z,5.03
2023-03-13T16:06:50.822Z,4.00
2023-03-13T16:08:05.661Z,3.83
2023-03-13T16:09:20.769Z,4.10
2023-03-13T16:10:42.662Z,4.43
2023-03-13T16:11:50.773Z,4.70
2023-03-13T16:13:06.890Z,5.53
2023-03-13T16:14:21.740Z,4.22
2023-03-13T16:15:30.777Z,4.45
2023-03-13T16:16:39.932Z,5.72
2023-03-13T16:17:54.682Z,7.72
2023-03-13T16:19:04.840Z,44.30
2023-03-13T16:20:29.720Z,6.25
2023-03-13T16:21:48.362Z,5.10
2023-03-13T16:22:57.697Z,5.20
2023-03-13T16:24:13.705Z,14.50
2023-03-13T16:25:29.734Z,14.18
2023-03-13T16:26:38.371Z,7.88
2023-03-13T16:28:01.774Z,4.82
2023-03-13T16:29:13.476Z,5.18
2023-03-13T16:30:40.742Z,4.50
2023-03-13T16:32:02.742Z,5.20
2023-03-13T16:33:18.852Z,5.10
2023-03-13T16:34:33.746Z,5.30
2023-03-13T16:35:55.812Z,5.28
2023-03-13T16:37:12.386Z,5.15
2023-03-13T16:38:26.871Z,5.65
2023-03-13T16:39:41.786Z,5.00
2023-03-13T16:40:56.724Z,5.60
2023-03-13T16:42:11.815Z,9.18
2023-03-13T16:43:26.798Z,8.65
2023-03-13T16:44:41.920Z,6.57
2023-03-13T16:45:56.740Z,6.50
2023-03-13T16:47:27.910Z,6.03
2023-03-13T16:48:42.767Z,5.63
2023-03-13T16:49:57.889Z,6.07
2023-03-13T16:51:07.510Z,5.88
2023-03-13T16:52:25.806Z,6.07
2023-03-13T16:53:40.919Z,6.10
2023-03-13T16:54:55.804Z,6.65
2023-03-13T16:56:10.853Z,6.40
2023-03-13T16:57:24.209Z,6.30
2023-03-13T16:58:38.791Z,5.88
2023-03-13T17:00:00.804Z,7.13
2023-03-13T17:01:31.839Z,6.53
2023-03-13T17:03:00.844Z,6.57
2023-03-13T17:04:29.856Z,5.60
2023-03-13T17:05:58.819Z,14.63
2023-03-13T17:07:38.797Z,22.33
2023-03-13T17:09:08.889Z,7.07
2023-03-13T17:10:43.897Z,6.90
2023-03-13T17:12:12.855Z,6.22
2023-03-13T17:13:41.881Z,6.30
2023-03-13T17:15:10.838Z,6.63
2023-03-13T17:16:45.839Z,6.65
2023-03-13T17:18:01.612Z,7.10
2023-03-13T17:19:26.840Z,6.78
2023-03-13T17:20:35.467Z,6.78
2023-03-13T17:21:56.906Z,7.22
2023-03-13T17:23:05.506Z,8.20
2023-03-13T17:24:26.877Z,7.20
2023-03-13T17:25:35.566Z,8.00
2023-03-13T17:26:56.871Z,7.72
2023-03-13T17:28:28.818Z,7.47
2023-03-13T17:29:45.092Z,7.05
2023-03-13T17:31:00.021Z,8.32
2023-03-13T17:32:18.873Z,9.77
2023-03-13T17:33:47.922Z,8.68
2023-03-13T17:35:03.790Z,8.75
2023-03-13T17:36:40.034Z,8.18
2023-03-13T17:37:55.920Z,8.98
2023-03-13T17:39:27.906Z,8.18
2023-03-13T17:40:56.888Z,8.05
2023-03-13T17:42:18.923Z,11.20
2023-03-13T17:43:34.124Z,11.90
2023-03-13T17:44:48.884Z,10.70
2023-03-13T17:46:04.055Z,26.85
2023-03-13T17:47:30.910Z,22.65
2023-03-13T17:48:39.006Z,8.75
2023-03-13T17:49:54.542Z,21.52
2023-03-13T17:51:08.953Z,11.70
2023-03-13T17:52:24.039Z,16.58
2023-03-13T17:53:39.536Z,17.55
2023-03-13T17:54:53.966Z,22.07
2023-03-13T17:56:02.029Z,13.40
2023-03-13T17:57:27.052Z,9.85
2023-03-13T17:58:42.196Z,9.50
2023-03-13T17:59:56.962Z,13.13
2023-03-13T18:01:21.203Z,12.25
2023-03-13T18:02:35.952Z,11.77
2023-03-13T18:03:52.076Z,12.50
2023-03-13T18:05:07.008Z,11.63
2023-03-13T18:06:30.145Z,13.65
2023-03-13T18:07:51.001Z,20.27
2023-03-13T18:09:09.075Z,15.95
2023-03-13T18:10:26.822Z,11.13
2023-03-13T18:11:43.958Z,10.38
2023-03-13T18:12:52.114Z,14.75
2023-03-13T18:14:01.124Z,12.80
2023-03-13T18:15:16.969Z,17.23
2023-03-13T18:16:38.333Z,12.18
2023-03-13T18:18:01.015Z,17.17
2023-03-13T18:19:11.088Z,15.43
2023-03-13T18:20:30.592Z,13.97
2023-03-13T18:21:45.065Z,12.55
2023-03-13T18:22:53.958Z,20.20
2023-03-13T18:24:17.999Z,15.18